Time;durP1;ratioP1;P1;durP2;ratioP2;P2;SDS_P1;SDS_P2;PMS_P1;PMS_P2;Temp;Humidity;BMP_temperature;BMP_pressure;BME280_temperature;BME280_humidity;BME280_pressure;Samples;Min_cycle;Max_cycle;Signal;HPM_P1;HPM_P2
2023/06/24 00:00:15;;;;;;;4.75;3.70;;;21.60;93.80;;;;;;4117628;28;20057;-53
2023/06/24 00:02:18;;;;;;;6.90;4.00;;;21.50;93.80;;;;;;4118407;28;20481;-55
2023/06/24 00:04:20;;;;;;;5.30;3.55;;;21.50;93.90;;;;;;4117727;28;20043;-53
2023/06/24 00:06:25;;;;;;;4.95;3.63;;;21.50;93.90;;;;;;4117885;28;20051;-56
2023/06/24 00:08:33;;;;;;;5.68;3.53;;;21.50;93.80;;;;;;4116354;28;20485;-64
2023/06/24 00:10:36;;;;;;;4.43;3.30;;;21.50;93.80;;;;;;4100373;29;20058;-59
2023/06/24 00:12:39;;;;;;;5.82;3.58;;;21.40;93.80;;;;;;4101012;29;20050;-57
2023/06/24 00:14:43;;;;;;;5.70;3.20;;;21.40;93.80;;;;;;4116372;28;20042;-57
2023/06/24 00:16:46;;;;;;;4.30;3.00;;;21.40;93.80;;;;;;4117695;28;20063;-59
2023/06/24 00:18:48;;;;;;;4.68;3.38;;;21.40;93.90;;;;;;4116625;28;20130;-59
2023/06/24 00:20:50;;;;;;;6.45;3.55;;;21.40;94.00;;;;;;4118047;28;20130;-59
2023/06/24 00:22:52;;;;;;;4.68;3.47;;;21.40;93.90;;;;;;4117843;28;20046;-59
2023/06/24 00:24:54;;;;;;;3.72;3.30;;;21.30;93.90;;;;;;4117173;28;20054;-58
2023/06/24 00:26:57;;;;;;;4.82;3.55;;;21.30;94.00;;;;;;4099834;29;20059;-59
2023/06/24 00:28:59;;;;;;;6.30;3.65;;;21.30;94.10;;;;;;4117517;28;20046;-58
2023/06/24 00:31:03;;;;;;;5.57;3.25;;;21.30;94.10;;;;;;4117967;28;20507;-59
2023/06/24 00:33:09;;;;;;;3.65;3.33;;;21.20;94.20;;;;;;4118343;28;20067;-59
2023/06/24 00:35:12;;;;;;;5.45;3.65;;;21.20;94.30;;;;;;4118102;28;20652;-57
2023/06/24 00:37:14;;;;;;;7.05;3.35;;;21.20;94.30;;;;;;4100446;29;20043;-58
2023/06/24 00:39:16;;;;;;;3.83;3.30;;;21.20;94.20;;;;;;4120111;28;20130;-57
2023/06/24 00:41:20;;;;;;;3.60;2.97;;;21.20;94.30;;;;;;4119443;28;20042;-55
2023/06/24 00:43:22;;;;;;;4.50;3.28;;;21.20;94.20;;;;;;4119697;28;20125;-59
2023/06/24 00:45:24;;;;;;;5.13;3.35;;;21.20;94.10;;;;;;4118550;28;20058;-54
2023/06/24 00:47:30;;;;;;;7.65;3.28;;;21.30;94.10;;;;;;4117552;28;20082;-55
2023/06/24 00:49:36;;;;;;;6.63;3.10;;;21.20;94.10;;;;;;4117685;28;20070;-55
2023/06/24 00:51:40;;;;;;;3.95;3.33;;;21.20;94.20;;;;;;4116443;28;20045;-55
2023/06/24 00:53:42;;;;;;;6.18;2.90;;;21.20;94.10;;;;;;4101189;29;20043;-55
2023/06/24 00:55:45;;;;;;;4.90;3.35;;;21.20;94.20;;;;;;4113108;28;20050;-54
2023/06/24 00:57:51;;;;;;;3.33;3.03;;;21.10;94.30;;;;;;4116222;28;20428;-55
2023/06/24 00:59:53;;;;;;;5.07;3.20;;;21.10;94.20;;;;;;4116930;28;20051;-55
2023/06/24 01:01:55;;;;;;;5.97;3.35;;;21.10;94.30;;;;;;4117232;28;20105;-55
2023/06/24 01:03:59;;;;;;;4.43;3.30;;;21.10;94.50;;;;;;4117704;28;20133;-55
2023/06/24 01:06:01;;;;;;;5.17;3.10;;;21.00;94.50;;;;;;4117561;28;20138;-55
2023/06/24 01:08:04;;;;;;;4.03;3.63;;;21.00;94.30;;;;;;4115905;28;20046;-59
2023/06/24 01:10:08;;;;;;;4.53;3.50;;;21.00;94.30;;;;;;4117055;28;20121;-57
2023/06/24 01:12:10;;;;;;;4.00;3.17;;;21.00;94.40;;;;;;4117337;28;20038;-57
2023/06/24 01:14:12;;;;;;;5.00;3.67;;;20.90;94.50;;;;;;4117286;28;20051;-57
2023/06/24 01:16:23;;;;;;;8.02;4.80;;;20.90;94.50;;;;;;4116740;28;20097;-57
2023/06/24 01:18:39;;;;;;;11.57;7.70;;;20.90;94.50;;;;;;4114957;28;20050;-57
2023/06/24 01:20:49;;;;;;;10.93;6.88;;;20.90;94.40;;;;;;4105180;28;20070;-57
2023/06/24 01:23:22;;;;;;;9.15;7.05;;;21.00;94.40;;;;;;4106711;28;20110;-57
2023/06/24 01:25:41;;;;;;;8.55;6.80;;;20.90;94.60;;;;;;4100729;28;20295;-57
2023/06/24 01:27:57;;;;;;;11.63;7.85;;;20.90;94.60;;;;;;4113877;28;20127;-58
2023/06/24 01:30:24;;;;;;;10.55;7.95;;;20.80;94.80;;;;;;4116814;28;20090;-57
2023/06/24 01:32:33;;;;;;;12.73;8.57;;;20.80;94.80;;;;;;4116615;28;20074;-57
2023/06/24 01:34:40;;;;;;;8.90;6.55;;;20.80;94.80;;;;;;4100603;29;20051;-57
2023/06/24 01:36:53;;;;;;;9.30;5.88;;;20.80;94.70;;;;;;4109364;28;20149;-57
2023/06/24 01:39:00;;;;;;;7.97;5.45;;;20.80;94.70;;;;;;4115929;28;20061;-58
2023/06/24 01:41:04;;;;;;;9.52;5.18;;;20.70;94.80;;;;;;4116622;28;20122;-57
2023/06/24 01:43:08;;;;;;;8.13;5.28;;;20.70;94.80;;;;;;4116266;28;20101;-58
2023/06/24 01:45:14;;;;;;;6.55;4.68;;;20.70;94.80;;;;;;4116279;28;20569;-57
2023/06/24 01:47:21;;;;;;;8.35;4.72;;;20.70;94.90;;;;;;4115411;28;20647;-57
2023/06/24 01:49:28;;;;;;;6.60;3.97;;;20.60;94.80;;;;;;4116301;28;20089;-57
2023/06/24 01:51:32;;;;;;;5.68;4.15;;;20.70;95.00;;;;;;4115404;28;20058;-57
2023/06/24 01:53:38;;;;;;;9.82;4.50;;;20.60;95.00;;;;;;4114927;28;20137;-57
2023/06/24 01:55:42;;;;;;;6.30;4.53;;;20.70;94.90;;;;;;4116631;28;20043;-57
2023/06/24 01:57:46;;;;;;;8.50;5.00;;;20.60;95.00;;;;;;4115200;28;20132;-57
2023/06/24 01:59:51;;;;;;;6.43;4.53;;;20.60;95.00;;;;;;4116159;28;20047;-57
2023/06/24 02:01:54;;;;;;;5.93;3.75;;;20.60;95.20;;;;;;4116128;28;20463;-57
2023/06/24 02:03:57;;;;;;;7.57;4.07;;;20.60;95.10;;;;;;4116323;28;20540;-58
2023/06/24 02:06:02;;;;;;;7.00;3.58;;;20.60;95.10;;;;;;4115665;28;20460;-57
2023/06/24 02:08:06;;;;;;;6.05;4.38;;;20.60;95.50;;;;;;4114460;28;20101;-60
2023/06/24 02:10:09;;;;;;;5.22;3.70;;;20.50;95.30;;;;;;4116056;28;20050;-58
2023/06/24 02:12:12;;;;;;;5.85;3.92;;;20.60;95.30;;;;;;4116026;28;20062;-58
2023/06/24 02:14:17;;;;;;;5.75;4.18;;;20.50;95.30;;;;;;4115959;28;20097;-57
2023/06/24 02:16:21;;;;;;;4.95;3.65;;;20.50;95.50;;;;;;4116343;28;20124;-57
2023/06/24 02:18:23;;;;;;;6.32;4.10;;;20.50;95.40;;;;;;4114837;28;20127;-57
2023/06/24 02:20:29;;;;;;;5.45;3.35;;;20.50;95.40;;;;;;4115858;28;20146;-57
2023/06/24 02:22:33;;;;;;;5.63;3.85;;;20.50;95.40;;;;;;4115023;28;20109;-57
2023/06/24 02:24:37;;;;;;;5.25;3.55;;;20.50;95.40;;;;;;4115872;28;20511;-57
2023/06/24 02:26:40;;;;;;;5.03;4.13;;;20.40;95.40;;;;;;4115809;28;20569;-57
2023/06/24 02:28:46;;;;;;;5.05;3.78;;;20.50;95.40;;;;;;4114745;28;20385;-57
2023/06/24 02:30:49;;;;;;;;;;;20.50;95.40;;;;;;4116308;28;20050;-57
2023/06/24 02:32:51;;;;;;;4.63;3.60;;;20.50;95.50;;;;;;4115700;28;19933;-57
2023/06/24 02:34:53;;;;;;;9.45;3.75;;;20.40;95.60;;;;;;4115414;28;20464;-57
2023/06/24 02:36:55;;;;;;;6.88;3.63;;;20.40;95.60;;;;;;4115576;28;20109;-58
2023/06/24 02:38:59;;;;;;;7.25;3.70;;;20.40;95.60;;;;;;4113465;28;20062;-58
2023/06/24 02:41:04;;;;;;;5.18;4.30;;;20.40;95.90;;;;;;4110022;28;20493;-58
2023/06/24 02:43:06;;;;;;;;;;;20.40;95.70;;;;;;4115967;28;20067;-57
2023/06/24 02:45:09;;;;;;;10.90;3.92;;;20.30;95.90;;;;;;4115345;28;19922;-57
2023/06/24 02:47:14;;;;;;;5.53;4.18;;;20.30;96.00;;;;;;4115527;28;20043;-57
2023/06/24 02:49:18;;;;;;;5.07;3.90;;;20.30;96.00;;;;;;4114091;28;20075;-57
2023/06/24 02:51:20;;;;;;;4.15;3.38;;;20.30;96.00;;;;;;4115639;28;20496;-58
2023/06/24 02:53:23;;;;;;;4.15;3.28;;;20.30;96.10;;;;;;4116297;28;20086;-58
2023/06/24 02:55:27;;;;;;;7.40;3.90;;;20.30;96.10;;;;;;4116711;28;20047;-61
2023/06/24 02:57:29;;;;;;;;;;;20.30;96.20;;;;;;4115971;28;20051;-58
2023/06/24 02:59:32;;;;;;;5.13;3.70;;;20.30;96.30;;;;;;4114987;28;19930;-56
2023/06/24 03:01:38;;;;;;;6.40;3.67;;;20.20;96.40;;;;;;4115661;28;20130;-58
2023/06/24 03:03:42;;;;;;;4.78;3.35;;;20.20;96.60;;;;;;4115229;28;20062;-58
2023/06/24 03:05:44;;;;;;;5.63;4.18;;;20.20;96.50;;;;;;4115348;28;20047;-57
2023/06/24 03:07:47;;;;;;;8.35;4.32;;;20.20;96.40;;;;;;4114045;28;20055;-57
2023/06/24 03:09:50;;;;;;;7.88;3.95;;;20.20;96.40;;;;;;4115397;28;20465;-57
2023/06/24 03:11:53;;;;;;;4.63;3.53;;;20.20;96.40;;;;;;4115532;28;20133;-57
2023/06/24 03:13:55;;;;;;;5.82;4.55;;;20.20;96.70;;;;;;4115453;28;20407;-57
2023/06/24 03:15:57;;;;;;;5.68;3.80;;;20.10;96.50;;;;;;4114766;28;20056;-58
2023/06/24 03:17:59;;;;;;;5.05;3.78;;;20.20;96.50;;;;;;4113792;28;20058;-57
2023/06/24 03:20:03;;;;;;;4.53;3.45;;;20.20;96.40;;;;;;4114936;28;20389;-58
2023/06/24 03:22:06;;;;;;;7.28;3.92;;;20.20;96.40;;;;;;4115305;28;20078;-57
2023/06/24 03:24:08;;;;;;;5.43;3.75;;;20.10;96.60;;;;;;4115272;28;20071;-57
2023/06/24 03:26:10;;;;;;;7.28;4.15;;;20.10;96.60;;;;;;4115288;28;20053;-57
2023/06/24 03:28:13;;;;;;;4.95;4.00;;;20.10;96.60;;;;;;4114075;28;20074;-57
2023/06/24 03:30:15;;;;;;;6.45;3.78;;;20.00;96.90;;;;;;4114970;28;20076;-58
2023/06/24 03:32:17;;;;;;;6.50;3.92;;;20.00;97.10;;;;;;4114840;28;20043;-58
2023/06/24 03:34:19;;;;;;;5.10;4.05;;;19.90;97.20;;;;;;4113146;28;20054;-57
2023/06/24 03:36:24;;;;;;;8.48;4.13;;;19.90;97.10;;;;;;4114907;28;20050;-57
2023/06/24 03:38:27;;;;;;;7.10;4.30;;;19.90;96.90;;;;;;4113820;28;20129;-58
2023/06/24 03:40:30;;;;;;;7.63;4.25;;;20.00;96.80;;;;;;4114860;28;20090;-58
2023/06/24 03:42:32;;;;;;;7.22;4.10;;;20.00;96.90;;;;;;4115245;28;20039;-63
2023/06/24 03:44:36;;;;;;;5.55;4.45;;;19.90;96.80;;;;;;4115118;28;20496;-57
2023/06/24 03:46:38;;;;;;;7.10;4.00;;;20.00;96.80;;;;;;4114363;28;20145;-57
2023/06/24 03:48:40;;;;;;;6.25;4.38;;;20.00;96.60;;;;;;4113956;28;20053;-57
2023/06/24 03:50:42;;;;;;;6.53;3.75;;;19.90;96.60;;;;;;4114772;28;20073;-55
2023/06/24 03:52:44;;;;;;;7.72;4.30;;;19.90;96.70;;;;;;4110555;28;20039;-56
2023/06/24 03:54:46;;;;;;;8.07;4.85;;;20.00;96.80;;;;;;4083893;29;20047;-61
2023/06/24 03:56:49;;;;;;;6.22;4.38;;;20.00;96.80;;;;;;4112946;28;20074;-57
2023/06/24 03:58:51;;;;;;;6.20;4.03;;;19.90;96.70;;;;;;4115422;28;20051;-56
2023/06/24 04:00:56;;;;;;;5.05;4.20;;;19.90;96.70;;;;;;4114634;28;20051;-55
2023/06/24 04:03:01;;;;;;;6.38;4.47;;;19.90;96.70;;;;;;4115274;28;20066;-55
2023/06/24 04:05:06;;;;;;;5.40;4.60;;;20.00;96.60;;;;;;4097971;28;20524;-55
2023/06/24 04:07:08;;;;;;;5.38;4.15;;;20.00;96.60;;;;;;4114676;28;20062;-55
2023/06/24 04:09:10;;;;;;;6.30;4.32;;;20.00;96.60;;;;;;4125053;28;20050;-55
2023/06/24 04:11:12;;;;;;;9.05;4.30;;;19.90;96.70;;;;;;4127512;28;20499;-53
2023/06/24 04:13:14;;;;;;;5.38;4.07;;;19.90;96.70;;;;;;4114787;28;20050;-55
2023/06/24 04:15:17;;;;;;;8.20;4.32;;;19.90;96.80;;;;;;4114538;28;20055;-53
2023/06/24 04:17:20;;;;;;;5.10;3.75;;;20.00;96.70;;;;;;4114718;28;20126;-54
2023/06/24 04:19:23;;;;;;;6.38;4.35;;;20.00;96.60;;;;;;4113782;28;20046;-54
2023/06/24 04:21:25;;;;;;;6.18;4.15;;;20.00;96.70;;;;;;4114519;28;20054;-55
2023/06/24 04:23:27;;;;;;;4.43;3.80;;;20.00;96.80;;;;;;4114850;28;20569;-55
2023/06/24 04:25:29;;;;;;;7.68;4.18;;;20.00;96.70;;;;;;4114826;28;20078;-57
2023/06/24 04:27:32;;;;;;;5.30;4.40;;;20.00;96.80;;;;;;4114100;28;20144;-57
2023/06/24 04:29:34;;;;;;;7.68;4.85;;;20.00;96.70;;;;;;4113518;28;20134;-55
2023/06/24 04:31:36;;;;;;;6.03;4.57;;;20.00;96.60;;;;;;4114393;28;20552;-56
2023/06/24 04:33:40;;;;;;;7.80;4.47;;;20.00;96.70;;;;;;4114467;28;20043;-55
2023/06/24 04:35:43;;;;;;;6.88;4.70;;;20.10;96.60;;;;;;4114495;28;20078;-55
2023/06/24 04:37:45;;;;;;;5.78;3.90;;;20.10;96.50;;;;;;4113928;28;20064;-56
2023/06/24 04:39:48;;;;;;;4.68;3.70;;;20.10;96.70;;;;;;4114494;28;20050;-56
2023/06/24 04:41:50;;;;;;;5.95;4.07;;;20.10;96.80;;;;;;4115601;28;20050;-56
2023/06/24 04:43:53;;;;;;;7.95;4.25;;;20.10;96.70;;;;;;4114884;28;20071;-56
2023/06/24 04:45:56;;;;;;;5.78;4.00;;;20.10;96.60;;;;;;4083580;29;20095;-55
2023/06/24 04:47:58;;;;;;;8.45;4.80;;;20.20;96.50;;;;;;4107325;28;20093;-55
2023/06/24 04:50:02;;;;;;;4.28;3.80;;;20.20;96.50;;;;;;4109010;28;20137;-58
2023/06/24 04:52:06;;;;;;;5.97;4.10;;;20.20;96.50;;;;;;4117498;28;20638;-57
2023/06/24 04:54:09;;;;;;;7.88;4.60;;;20.20;96.40;;;;;;4117210;28;20476;-58
2023/06/24 04:56:11;;;;;;;4.75;3.63;;;20.20;96.40;;;;;;4117638;28;20129;-58
2023/06/24 04:58:13;;;;;;;8.98;4.40;;;20.20;96.60;;;;;;4116004;28;20054;-57
2023/06/24 05:00:15;;;;;;;6.68;4.13;;;20.20;96.60;;;;;;4116911;28;20462;-58
2023/06/24 05:02:17;;;;;;;5.22;4.00;;;20.20;96.50;;;;;;4117315;28;20078;-58
2023/06/24 05:04:20;;;;;;;6.18;4.43;;;20.30;96.70;;;;;;4117047;28;20416;-56
2023/06/24 05:06:23;;;;;;;7.75;4.50;;;20.20;96.50;;;;;;4117330;28;20129;-56
2023/06/24 05:08:26;;;;;;;5.47;4.18;;;20.20;96.60;;;;;;4115237;28;20102;-56
2023/06/24 05:10:28;;;;;;;6.05;4.60;;;20.30;96.60;;;;;;4116994;28;20081;-55
2023/06/24 05:12:30;;;;;;;10.68;4.75;;;20.30;96.60;;;;;;4117183;28;20047;-56
2023/06/24 05:14:34;;;;;;;6.40;4.78;;;20.30;96.80;;;;;;4116976;28;20535;-56
2023/06/24 05:16:36;;;;;;;6.17;4.50;;;20.30;96.50;;;;;;4117089;28;20489;-56
2023/06/24 05:18:39;;;;;;;8.55;5.00;;;20.30;96.60;;;;;;4115830;28;20057;-56
2023/06/24 05:20:42;;;;;;;5.32;4.28;;;20.30;96.60;;;;;;4117026;28;20070;-56
2023/06/24 05:22:45;;;;;;;8.50;4.45;;;20.40;96.60;;;;;;4117082;28;20519;-55
2023/06/24 05:24:47;;;;;;;8.48;4.50;;;20.40;96.40;;;;;;4116666;28;20138;-56
2023/06/24 05:26:50;;;;;;;7.25;4.00;;;20.30;96.60;;;;;;4117134;28;20047;-55
2023/06/24 05:28:52;;;;;;;8.32;4.60;;;20.40;96.80;;;;;;4115287;28;20038;-55
2023/06/24 05:30:55;;;;;;;7.53;4.63;;;20.40;96.70;;;;;;4116947;28;20050;-56
2023/06/24 05:32:57;;;;;;;8.85;4.60;;;20.50;96.50;;;;;;4116624;28;20075;-56
2023/06/24 05:34:59;;;;;;;8.70;4.22;;;20.50;96.30;;;;;;4116507;28;20042;-58
2023/06/24 05:37:02;;;;;;;8.55;4.07;;;20.50;96.70;;;;;;4116596;28;20081;-58
2023/06/24 05:39:07;;;;;;;8.00;4.68;;;20.60;96.40;;;;;;4115468;28;20070;-58
2023/06/24 05:41:09;;;;;;;7.10;4.45;;;20.50;96.40;;;;;;4116561;28;20396;-56
2023/06/24 05:43:11;;;;;;;5.97;4.10;;;20.50;96.50;;;;;;4116409;28;20389;-56
2023/06/24 05:45:13;;;;;;;6.38;4.75;;;20.60;96.40;;;;;;4116342;28;20142;-55
2023/06/24 05:47:15;;;;;;;6.93;4.32;;;20.50;96.00;;;;;;4116826;28;20051;-55
2023/06/24 05:49:18;;;;;;;7.97;4.35;;;20.50;96.00;;;;;;4115253;28;20046;-55
2023/06/24 05:51:19;;;;;;;8.32;4.65;;;20.50;96.40;;;;;;4112737;28;20078;-55
2023/06/24 05:53:24;;;;;;;;;;;20.60;96.10;;;;;;4117230;28;20086;-55
2023/06/24 05:55:28;;;;;;;4.88;4.10;;;20.60;95.90;;;;;;4116363;28;19922;-55
2023/06/24 05:57:30;;;;;;;4.18;3.63;;;20.50;96.20;;;;;;4115258;28;20134;-56
2023/06/24 05:59:32;;;;;;;7.40;3.88;;;20.60;96.10;;;;;;4115253;28;20101;-55
2023/06/24 06:01:34;;;;;;;6.95;4.07;;;20.60;96.00;;;;;;4116509;28;20157;-55
2023/06/24 06:03:37;;;;;;;6.03;3.80;;;20.60;96.10;;;;;;4116555;28;20051;-56
2023/06/24 06:05:39;;;;;;;8.65;4.10;;;20.60;96.00;;;;;;4116060;28;20047;-56
2023/06/24 06:07:43;;;;;;;6.93;4.07;;;20.60;96.10;;;;;;4116382;28;20049;-55
2023/06/24 06:09:45;;;;;;;5.90;4.20;;;20.60;96.40;;;;;;4099523;29;20059;-59
2023/06/24 06:11:49;;;;;;;5.45;3.85;;;20.70;96.30;;;;;;4115500;28;20051;-58
2023/06/24 06:13:52;;;;;;;8.65;4.07;;;20.70;95.80;;;;;;4100424;29;20470;-57
2023/06/24 06:15:54;;;;;;;7.38;4.25;;;20.80;95.70;;;;;;4107691;28;20082;-62
2023/06/24 06:17:56;;;;;;;9.05;4.00;;;20.80;95.40;;;;;;4116429;28;20069;-55
2023/06/24 06:19:58;;;;;;;10.98;4.55;;;20.80;95.40;;;;;;4115750;28;20058;-54
2023/06/24 06:22:00;;;;;;;8.15;4.15;;;20.90;95.40;;;;;;4116311;28;20129;-55
2023/06/24 06:24:03;;;;;;;4.75;3.92;;;20.90;95.20;;;;;;4098975;29;20047;-58
2023/06/24 06:26:05;;;;;;;5.20;3.80;;;21.00;95.40;;;;;;4106095;28;20066;-58
2023/06/24 06:28:09;;;;;;;6.00;3.42;;;21.10;95.10;;;;;;4115719;28;20130;-58
2023/06/24 06:30:12;;;;;;;4.88;3.25;;;21.10;94.50;;;;;;4115579;28;20050;-59
2023/06/24 06:32:15;;;;;;;5.60;3.77;;;21.20;94.20;;;;;;4115624;28;20053;-59
2023/06/24 06:34:17;;;;;;;6.38;3.60;;;21.20;94.00;;;;;;4116089;28;20126;-59
2023/06/24 06:36:19;;;;;;;6.15;3.60;;;21.20;94.10;;;;;;4115750;28;20043;-58
2023/06/24 06:38:21;;;;;;;4.32;3.50;;;21.30;93.80;;;;;;4114963;28;20105;-58
2023/06/24 06:40:24;;;;;;;6.78;3.28;;;21.20;93.90;;;;;;4115477;28;20066;-56
2023/06/24 06:42:26;;;;;;;8.45;3.53;;;21.20;93.80;;;;;;4115740;28;20138;-59
2023/06/24 06:44:30;;;;;;;6.13;4.13;;;21.20;94.00;;;;;;4115788;28;20085;-59
2023/06/24 06:46:33;;;;;;;7.00;3.55;;;21.30;94.00;;;;;;4115396;28;20051;-57
2023/06/24 06:48:35;;;;;;;6.50;3.65;;;21.30;93.90;;;;;;4114760;28;20086;-56
2023/06/24 06:50:37;;;;;;;5.03;3.33;;;21.50;93.70;;;;;;4115475;28;20105;-64
2023/06/24 06:52:39;;;;;;;5.32;3.55;;;21.60;93.60;;;;;;4113757;28;20480;-58
2023/06/24 06:54:41;;;;;;;4.90;3.55;;;21.60;93.30;;;;;;4115700;28;20054;-59
2023/06/24 06:56:43;;;;;;;5.75;3.78;;;21.70;93.40;;;;;;4115509;28;20122;-58
2023/06/24 06:58:45;;;;;;;6.60;3.47;;;21.90;93.20;;;;;;4114598;28;20035;-58
2023/06/24 07:00:49;;;;;;;4.95;3.38;;;22.00;92.90;;;;;;4115675;28;20507;-61
2023/06/24 07:02:51;;;;;;;4.70;3.50;;;22.10;92.90;;;;;;4115664;28;20057;-58
2023/06/24 07:04:53;;;;;;;5.38;3.55;;;22.20;92.50;;;;;;4116271;28;20484;-66
2023/06/24 07:06:55;;;;;;;4.75;3.42;;;22.30;92.50;;;;;;4117460;28;20070;-68
2023/06/24 07:08:57;;;;;;;6.38;3.42;;;22.50;92.10;;;;;;4114067;28;20115;-59
2023/06/24 07:11:00;;;;;;;3.67;2.95;;;22.60;91.90;;;;;;4101028;29;20130;-65
2023/06/24 07:13:02;;;;;;;4.95;3.28;;;22.70;91.50;;;;;;4109654;28;20042;-60
2023/06/24 07:15:05;;;;;;;5.35;3.15;;;22.80;91.30;;;;;;4098463;29;20130;-59
2023/06/24 07:17:12;;;;;;;4.88;3.15;;;22.90;91.00;;;;;;4099869;28;20047;-58
2023/06/24 07:19:14;;;;;;;4.70;3.25;;;23.00;90.90;;;;;;4114460;28;20066;-58
2023/06/24 07:21:16;;;;;;;4.80;2.92;;;23.20;90.90;;;;;;4115677;28;20050;-58
2023/06/24 07:23:18;;;;;;;3.88;2.88;;;23.30;90.00;;;;;;4097742;28;20062;-58
2023/06/24 07:25:20;;;;;;;5.85;3.20;;;23.20;90.20;;;;;;4114925;28;20106;-58
2023/06/24 07:27:23;;;;;;;6.60;3.22;;;23.40;90.30;;;;;;4115237;28;20046;-58
2023/06/24 07:29:25;;;;;;;5.00;2.90;;;23.50;90.30;;;;;;4113942;28;20089;-58
2023/06/24 07:31:27;;;;;;;3.33;3.00;;;23.60;90.00;;;;;;4115028;28;20043;-57
2023/06/24 07:33:30;;;;;;;6.68;3.50;;;23.60;88.70;;;;;;4114825;28;20050;-56
2023/06/24 07:35:34;;;;;;;3.88;3.28;;;23.80;89.40;;;;;;4115134;28;20110;-56
2023/06/24 07:37:36;;;;;;;3.65;2.83;;;23.80;89.10;;;;;;4115183;28;20467;-57
2023/06/24 07:39:38;;;;;;;5.22;2.65;;;23.90;88.70;;;;;;4113466;28;20061;-56
2023/06/24 07:41:42;;;;;;;4.10;2.88;;;24.00;88.20;;;;;;4114838;28;20056;-55
2023/06/24 07:43:44;;;;;;;7.13;2.83;;;24.00;87.40;;;;;;4114997;28;20043;-61
2023/06/24 07:45:46;;;;;;;4.35;2.10;;;24.10;87.90;;;;;;4114899;28;20413;-56
2023/06/24 07:47:48;;;;;;;4.97;2.40;;;24.20;85.00;;;;;;4115096;28;20122;-56
2023/06/24 07:49:52;;;;;;;4.72;2.78;;;24.30;84.60;;;;;;4113649;28;20142;-60
2023/06/24 07:51:54;;;;;;;3.70;2.35;;;24.30;85.50;;;;;;4114528;28;20042;-55
2023/06/24 07:53:56;;;;;;;4.78;2.90;;;24.40;86.30;;;;;;4114649;28;20134;-56
2023/06/24 07:55:58;;;;;;;4.60;3.05;;;24.50;86.30;;;;;;4115014;28;20086;-56
2023/06/24 07:58:02;;;;;;;5.80;3.20;;;24.60;86.10;;;;;;4114805;28;20146;-56
2023/06/24 08:00:09;;;;;;;9.73;2.80;;;24.60;86.60;;;;;;4113590;28;20039;-56
2023/06/24 08:02:12;;;;;;;4.93;3.08;;;24.60;87.00;;;;;;4115308;28;20465;-56
2023/06/24 08:04:15;;;;;;;5.13;2.63;;;24.70;87.00;;;;;;4113402;28;20054;-56
2023/06/24 08:06:20;;;;;;;4.53;2.90;;;24.80;86.80;;;;;;4112867;28;20067;-56
2023/06/24 08:08:22;;;;;;;3.67;2.85;;;24.60;85.40;;;;;;4111859;28;20103;-57
2023/06/24 08:10:24;;;;;;;3.47;2.90;;;24.60;85.00;;;;;;4113824;28;20046;-56
2023/06/24 08:12:26;;;;;;;3.03;2.72;;;24.70;86.20;;;;;;4111800;28;20389;-59
2023/06/24 08:14:28;;;;;;;3.33;2.70;;;24.70;85.10;;;;;;4114752;28;20051;-57
2023/06/24 08:16:30;;;;;;;4.70;2.70;;;24.80;85.50;;;;;;4115156;28;20079;-57
2023/06/24 08:18:33;;;;;;;5.07;2.97;;;24.80;85.20;;;;;;4113811;28;20054;-59
2023/06/24 08:20:35;;;;;;;6.90;3.13;;;24.90;85.00;;;;;;4116538;28;20065;-56
2023/06/24 08:22:39;;;;;;;5.28;3.15;;;25.00;85.60;;;;;;4117692;28;20105;-56
2023/06/24 08:24:41;;;;;;;3.47;2.58;;;24.90;85.00;;;;;;4117918;28;20477;-56
2023/06/24 08:26:43;;;;;;;4.00;2.80;;;25.00;84.10;;;;;;4117936;28;20047;-55
2023/06/24 08:28:47;;;;;;;4.05;2.75;;;24.90;84.00;;;;;;4117000;28;20167;-57
2023/06/24 08:30:49;;;;;;;3.67;2.42;;;25.00;83.20;;;;;;4117382;28;20469;-58
2023/06/24 08:32:51;;;;;;;3.75;2.40;;;24.90;83.40;;;;;;4117741;28;20058;-58
2023/06/24 08:34:53;;;;;;;5.38;2.92;;;25.00;83.60;;;;;;4116532;28;20098;-57
2023/06/24 08:36:55;;;;;;;3.53;2.83;;;25.20;83.90;;;;;;4117242;28;20519;-56
2023/06/24 08:38:59;;;;;;;4.13;2.53;;;25.20;82.30;;;;;;4117084;28;20055;-57
2023/06/24 08:41:01;;;;;;;4.55;2.45;;;25.20;82.40;;;;;;4117293;28;20066;-57
2023/06/24 08:43:03;;;;;;;4.03;2.67;;;25.30;83.00;;;;;;4117630;28;20074;-59
2023/06/24 08:45:06;;;;;;;2.85;2.30;;;25.40;82.60;;;;;;4116121;28;20085;-58
2023/06/24 08:47:09;;;;;;;2.90;2.45;;;25.30;80.10;;;;;;4115935;28;20164;-59
2023/06/24 08:49:23;;;;;;;3.70;2.63;;;25.20;80.90;;;;;;4109529;28;20524;-55
2023/06/24 08:51:35;;;;;;;3.92;2.63;;;25.30;79.60;;;;;;4099400;29;20389;-56
2023/06/24 08:53:41;;;;;;;3.22;2.25;;;25.20;80.90;;;;;;4111630;28;20050;-57
2023/06/24 08:55:45;;;;;;;3.75;2.47;;;25.40;81.50;;;;;;4117827;28;20043;-57
2023/06/24 08:57:48;;;;;;;5.50;2.78;;;25.50;81.80;;;;;;4117326;28;20082;-56
2023/06/24 08:59:50;;;;;;;3.40;2.50;;;25.50;79.10;;;;;;4116652;28;20057;-57
2023/06/24 09:01:52;;;;;;;2.58;2.15;;;25.60;79.30;;;;;;4117076;28;20043;-56
2023/06/24 09:03:54;;;;;;;3.95;2.70;;;25.40;77.80;;;;;;4117408;28;20147;-56
2023/06/24 09:05:56;;;;;;;4.25;2.78;;;25.60;78.70;;;;;;4116668;28;20398;-59
2023/06/24 09:07:58;;;;;;;5.57;2.67;;;25.80;79.40;;;;;;4118797;28;20053;-58
2023/06/24 09:10:01;;;;;;;4.03;2.60;;;25.80;80.10;;;;;;4131953;28;20046;-58
2023/06/24 09:12:11;;;;;;;4.10;2.50;;;25.80;79.50;;;;;;4122894;28;20043;-59
2023/06/24 09:14:16;;;;;;;5.40;2.63;;;25.70;78.00;;;;;;4117287;28;20051;-59
2023/06/24 09:16:18;;;;;;;3.65;2.50;;;25.70;78.90;;;;;;4116896;28;20047;-59
2023/06/24 09:18:20;;;;;;;4.18;2.95;;;25.70;80.00;;;;;;4117084;28;20057;-56
2023/06/24 09:20:23;;;;;;;2.92;2.60;;;25.80;80.10;;;;;;4115294;28;20039;-60
2023/06/24 09:22:30;;;;;;;12.13;8.25;;;25.80;80.50;;;;;;4093211;28;20457;-56
2023/06/24 09:24:33;;;;;;;2.70;2.30;;;25.80;79.60;;;;;;4116795;28;20125;-55
2023/06/24 09:26:35;;;;;;;5.40;3.10;;;25.90;79.90;;;;;;4114609;28;20050;-58
2023/06/24 09:28:39;;;;;;;3.63;2.58;;;26.00;80.70;;;;;;4110039;28;20409;-57
2023/06/24 09:30:41;;;;;;;4.55;2.90;;;26.10;81.40;;;;;;4109823;28;20070;-55
2023/06/24 09:32:43;;;;;;;6.47;2.92;;;26.20;82.50;;;;;;4116010;28;20065;-57
2023/06/24 09:34:46;;;;;;;4.95;3.10;;;26.30;81.20;;;;;;4116802;28;20077;-60
2023/06/24 09:36:52;;;;;;;8.63;2.78;;;26.40;80.70;;;;;;4116893;28;20416;-58
2023/06/24 09:38:57;;;;;;;4.82;3.20;;;26.50;81.30;;;;;;4112636;28;20046;-59
2023/06/24 09:41:02;;;;;;;;;;;26.40;82.40;;;;;;4117194;28;20054;-57
2023/06/24 09:43:20;;;;;;;3.28;2.85;;;26.40;81.70;;;;;;4116536;28;19988;-57
2023/06/24 09:45:25;;;;;;;4.18;3.22;;;26.40;80.50;;;;;;4116542;28;20055;-56
2023/06/24 09:47:28;;;;;;;5.10;3.08;;;26.50;81.00;;;;;;4116552;28;20501;-59
2023/06/24 09:49:30;;;;;;;7.35;3.60;;;26.40;80.50;;;;;;4114685;28;20046;-59
2023/06/24 09:51:38;;;;;;;4.13;3.30;;;26.30;80.70;;;;;;4112406;28;20102;-58
2023/06/24 09:53:42;;;;;;;3.70;3.13;;;26.40;80.60;;;;;;4112123;28;20430;-58
2023/06/24 09:55:46;;;;;;;5.13;3.00;;;26.40;81.10;;;;;;4116347;28;20066;-56
2023/06/24 09:57:53;;;;;;;5.05;3.10;;;26.60;81.40;;;;;;4120170;28;20054;-56
2023/06/24 09:59:56;;;;;;;5.07;2.80;;;26.80;80.20;;;;;;4115268;28;20061;-56
2023/06/24 10:02:00;;;;;;;5.20;3.05;;;26.80;80.00;;;;;;4116401;28;20061;-56
2023/06/24 10:04:03;;;;;;;5.38;3.47;;;26.90;80.60;;;;;;4116063;28;20527;-56
2023/06/24 10:06:06;;;;;;;4.47;3.40;;;27.10;80.80;;;;;;4114764;28;20054;-56
2023/06/24 10:08:13;;;;;;;7.57;3.45;;;27.20;80.30;;;;;;4114450;28;20067;-56
2023/06/24 10:10:15;;;;;;;4.85;3.42;;;27.10;79.60;;;;;;4115054;28;20062;-57
2023/06/24 10:12:18;;;;;;;5.55;3.25;;;27.00;79.40;;;;;;4115723;28;20074;-56
2023/06/24 10:14:20;;;;;;;6.78;3.25;;;27.10;80.00;;;;;;4115331;28;20047;-57
2023/06/24 10:16:23;;;;;;;8.88;3.22;;;27.10;80.70;;;;;;4098951;29;20106;-55
2023/06/24 10:18:37;;;;;;;9.30;3.20;;;27.30;80.00;;;;;;4098426;29;20086;-56
2023/06/24 10:20:39;;;;;;;4.53;3.15;;;27.40;80.20;;;;;;4114014;28;20515;-59
2023/06/24 10:22:46;;;;;;;4.25;3.17;;;27.40;79.90;;;;;;4116464;28;20054;-59
2023/06/24 10:24:48;;;;;;;6.03;3.53;;;27.30;79.10;;;;;;4116068;28;20055;-58
2023/06/24 10:26:51;;;;;;;6.00;3.42;;;27.40;78.80;;;;;;4116051;28;20175;-59
2023/06/24 10:29:14;;;;;;;5.68;4.10;;;27.30;78.20;;;;;;4114026;28;20050;-58
2023/06/24 10:31:16;;;;;;;5.90;3.97;;;27.30;77.90;;;;;;4115456;28;20050;-58
2023/06/24 10:33:18;;;;;;;5.07;3.40;;;27.30;78.20;;;;;;4115701;28;20471;-59
2023/06/24 10:35:26;;;;;;;4.05;3.15;;;27.40;78.40;;;;;;4115519;28;20126;-58
2023/06/24 10:37:32;;;;;;;7.38;3.55;;;27.50;79.60;;;;;;4115516;28;20070;-59
2023/06/24 10:39:51;;;;;;;6.15;3.35;;;27.60;80.00;;;;;;4114789;28;20461;-59
2023/06/24 10:41:54;;;;;;;7.13;3.55;;;27.70;79.60;;;;;;4116252;28;20466;-59
2023/06/24 10:43:57;;;;;;;5.70;3.50;;;27.80;78.70;;;;;;4113246;28;20490;-56